Aloma, Florida
Current Conditions -  °F | °C
As of 4:56 AM on Sunday 23 Nov 2014 (Local Time) from KORL Reporting Station
Broken Clouds Broken Clouds  
Wind Chill: 22°   Ceiling: 3300
Heat Index: 22°   Visibility: 10mi
Dew Point: 22°   Wind: 13mph
Humidity: 97%   Direction: 150°SSE
Pressure: 30.01"   Gusts: NA
Location:  28.6093°N, 81.2979°W
Report Text: KORL 230956Z AUTO 15011KT 10SM SCT007 BKN033 BKN090 22/22 A3001 RMK AO2 T02220217
Loading
Personal Weather Stations






























Interactive Weather Map New forecast layout! Learn more

10-Day Weather Forecast

Advertisements
Track Severe Weather on mobile